createdAt,value
2022-08-01T00:00:50.184Z,4.78
2022-08-01T00:04:56.310Z,5.50
2022-08-01T00:08:58.861Z,5.53
2022-08-01T00:13:00.964Z,6.38
2022-08-01T00:17:07.202Z,6.07
2022-08-01T00:21:09.865Z,6.03
2022-08-01T00:25:12.144Z,5.95
2022-08-01T00:30:09.537Z,6.80
2022-08-01T00:33:36.796Z,7.70
2022-08-01T00:37:38.897Z,7.00
2022-08-01T00:41:41.369Z,8.13
2022-08-01T00:45:43.784Z,7.28
2022-08-01T00:49:46.283Z,6.80
2022-08-01T00:53:51.898Z,6.53
2022-08-01T00:58:02.726Z,5.38
2022-08-01T01:02:14.679Z,5.00
2022-08-01T01:06:43.282Z,5.15
2022-08-01T01:10:56.501Z,4.53
2022-08-01T01:15:26.275Z,5.18
2022-08-01T01:19:35.342Z,5.10
2022-08-01T01:24:14.972Z,5.63
2022-08-01T01:28:44.824Z,4.47
2022-08-01T01:32:51.541Z,5.13
2022-08-01T01:36:58.057Z,4.07
2022-08-01T01:41:03.451Z,4.35
2022-08-01T01:45:06.907Z,5.32
2022-08-01T01:49:11.601Z,5.95
2022-08-01T01:53:16.592Z,6.80
2022-08-01T01:57:19.785Z,7.75
2022-08-01T02:01:58.671Z,7.38
2022-08-01T02:05:51.095Z,6.05
2022-08-01T02:09:55.534Z,6.45
2022-08-01T02:14:03.627Z,5.93
2022-08-01T02:18:08.806Z,5.70
2022-08-01T02:22:15.156Z,5.47
2022-08-01T02:26:19.622Z,6.40
2022-08-01T02:30:25.991Z,6.00
2022-08-01T02:34:33.205Z,4.78
2022-08-01T02:38:38.768Z,5.57
2022-08-01T02:42:46.709Z,7.15
2022-08-01T02:46:54.867Z,5.55
2022-08-01T02:51:01.413Z,5.53
2022-08-01T02:55:09.823Z,5.78
2022-08-01T02:59:19.805Z,4.65
2022-08-01T03:03:25.588Z,5.25
2022-08-01T03:07:34.307Z,4.80
2022-08-01T03:11:41.577Z,3.80
2022-08-01T03:15:45.512Z,3.85
2022-08-01T03:19:49.791Z,4.40
2022-08-01T03:23:58.308Z,4.88
2022-08-01T03:28:04.516Z,4.88
2022-08-01T03:32:08.001Z,5.10
2022-08-01T03:36:13.822Z,5.68
2022-08-01T03:40:27.287Z,5.32
2022-08-01T03:44:34.336Z,4.32
2022-08-01T03:48:40.764Z,4.95
2022-08-01T03:52:46.250Z,4.90
2022-08-01T03:56:51.017Z,6.20
2022-08-01T04:00:53.737Z,5.18
2022-08-01T04:04:56.711Z,5.57
2022-08-01T04:08:59.067Z,5.65
2022-08-01T04:13:01.560Z,5.22
2022-08-01T04:17:03.828Z,5.82
2022-08-01T04:21:06.045Z,5.53
2022-08-01T04:25:21.033Z,5.90
2022-08-01T04:29:24.343Z,5.65
2022-08-01T04:33:29.357Z,6.70
2022-08-01T04:37:32.342Z,4.75
2022-08-01T04:41:37.148Z,6.63
2022-08-01T04:45:40.651Z,6.10
2022-08-01T04:49:49.102Z,5.85
2022-08-01T04:53:52.253Z,6.57
2022-08-01T04:57:54.467Z,6.00
2022-08-01T05:01:56.610Z,6.13
2022-08-01T05:05:58.943Z,5.93
2022-08-01T05:10:02.548Z,7.45
2022-08-01T05:14:08.175Z,7.25
2022-08-01T05:18:10.775Z,6.25
2022-08-01T05:22:13.937Z,7.00
2022-08-01T05:26:16.356Z,6.90
2022-08-01T05:30:18.808Z,7.03
2022-08-01T05:34:21.742Z,7.30
2022-08-01T05:38:24.227Z,6.88
2022-08-01T05:42:26.549Z,6.93
2022-08-01T05:46:29.255Z,7.30
2022-08-01T05:50:31.459Z,7.13
2022-08-01T05:54:33.826Z,7.40
2022-08-01T05:58:35.880Z,10.23
2022-08-01T06:02:42.622Z,10.18
2022-08-01T06:06:45.867Z,9.15
2022-08-01T06:10:48.203Z,7.35
2022-08-01T06:14:50.298Z,6.90
2022-08-01T06:18:56.521Z,6.85
2022-08-01T06:22:59.888Z,6.45
2022-08-01T06:27:04.041Z,5.80
2022-08-01T06:31:24.315Z,5.55
2022-08-01T06:35:28.265Z,5.38
2022-08-01T06:39:32.045Z,5.57
2022-08-01T06:43:34.362Z,4.90
2022-08-01T06:47:37.855Z,5.57
2022-08-01T06:51:40.038Z,4.95
2022-08-01T06:55:42.272Z,4.50
2022-08-01T06:59:51.796Z,5.40
2022-08-01T07:03:56.818Z,5.20
2022-08-01T07:07:59.424Z,5.47
2022-08-01T07:12:01.631Z,2.47
2022-08-01T07:16:04.045Z,2.45
2022-08-01T07:20:08.495Z,2.65
2022-08-01T07:24:15.188Z,2.47
2022-08-01T07:28:17.787Z,2.45
2022-08-01T07:32:20.144Z,2.33
2022-08-01T07:36:22.417Z,2.10
2022-08-01T07:40:24.805Z,1.73
2022-08-01T07:44:28.214Z,1.80
2022-08-01T07:48:32.400Z,1.73
2022-08-01T07:52:34.744Z,1.80
2022-08-01T07:56:37.111Z,2.17
2022-08-01T08:00:39.243Z,2.28
2022-08-01T08:04:45.772Z,2.50
2022-08-01T08:08:51.006Z,2.80
2022-08-01T08:12:53.557Z,3.63
2022-08-01T08:16:55.903Z,2.10
2022-08-01T08:21:04.701Z,1.75
2022-08-01T08:25:10.051Z,1.80
2022-08-01T08:29:14.240Z,2.47
2022-08-01T08:33:16.467Z,2.08
2022-08-01T08:37:18.867Z,2.00
2022-08-01T08:41:23.817Z,1.92
2022-08-01T08:45:29.665Z,1.90
2022-08-01T08:49:50.283Z,2.08
2022-08-01T08:53:55.462Z,1.73
2022-08-01T08:57:58.594Z,2.00
2022-08-01T09:02:00.811Z,2.83
2022-08-01T09:06:04.749Z,2.55
2022-08-01T09:10:07.695Z,2.00
2022-08-01T09:14:24.356Z,2.25
2022-08-01T09:18:33.266Z,2.47
2022-08-01T09:26:37.585Z,2.55
2022-08-01T09:30:40.972Z,2.00
2022-08-01T09:34:43.311Z,1.40
2022-08-01T09:38:50.969Z,1.90
2022-08-01T09:43:11.947Z,2.38
2022-08-01T09:47:18.011Z,1.98
2022-08-01T09:51:59.422Z,2.08
2022-08-01T09:56:13.621Z,1.65
2022-08-01T10:00:43.724Z,2.20
2022-08-01T10:04:50.786Z,2.45
2022-08-01T10:08:53.265Z,2.22
2022-08-01T10:12:57.424Z,1.60
2022-08-01T10:17:05.310Z,1.48
2022-08-01T10:21:08.860Z,1.70
2022-08-01T10:25:17.816Z,1.83
2022-08-01T10:30:05.591Z,1.40
2022-08-01T10:34:12.265Z,1.50
2022-08-01T10:38:15.898Z,1.95
2022-08-01T10:42:19.889Z,1.90
2022-08-01T10:46:21.884Z,2.55
2022-08-01T10:50:48.508Z,1.60
2022-08-01T10:55:03.979Z,2.20
2022-08-01T10:59:11.840Z,1.58
2022-08-01T11:03:14.126Z,1.53
2022-08-01T11:07:25.828Z,1.48
2022-08-01T11:11:29.702Z,1.25
2022-08-01T11:15:49.940Z,1.92
2022-08-01T11:20:12.996Z,1.52
2022-08-01T11:24:16.639Z,1.60
2022-08-01T11:28:28.918Z,1.70
2022-08-01T11:32:42.451Z,1.88
2022-08-01T11:37:24.781Z,2.65
2022-08-01T11:41:38.132Z,2.28
2022-08-01T11:45:59.150Z,1.55
2022-08-01T11:50:02.533Z,1.90
2022-08-01T11:54:04.865Z,2.58
2022-08-01T11:58:22.550Z,1.70
2022-08-01T12:02:33.117Z,1.98
2022-08-01T12:06:35.576Z,1.70
2022-08-01T12:10:49.394Z,2.13
2022-08-01T12:14:57.716Z,2.20
2022-08-01T12:19:00.366Z,2.35
2022-08-01T12:23:10.435Z,2.15
2022-08-01T12:27:24.457Z,1.85
2022-08-01T12:31:34.864Z,2.13
2022-08-01T12:35:39.250Z,1.98
2022-08-01T12:39:41.891Z,2.03
2022-08-01T12:43:44.110Z,1.55
2022-08-01T12:47:47.317Z,1.80
2022-08-01T12:51:57.076Z,1.85
2022-08-01T12:56:00.163Z,2.05
2022-08-01T13:00:08.798Z,2.45
2022-08-01T13:04:11.125Z,2.22
2022-08-01T13:08:21.081Z,1.88
2022-08-01T13:12:23.670Z,2.22
2022-08-01T13:16:48.778Z,2.08
2022-08-01T13:20:50.564Z,2.10
2022-08-01T13:25:10.764Z,2.08
2022-08-01T13:29:22.015Z,1.92
2022-08-01T13:33:25.892Z,1.90
2022-08-01T13:37:28.203Z,2.28
2022-08-01T13:41:34.282Z,2.17
2022-08-01T13:45:36.577Z,1.58
2022-08-01T13:49:41.009Z,1.90
2022-08-01T13:53:43.340Z,1.80
2022-08-01T13:57:45.327Z,1.92
2022-08-01T14:01:48.134Z,2.15
2022-08-01T14:05:50.284Z,2.10
2022-08-01T14:10:18.327Z,3.03
2022-08-01T14:14:22.178Z,2.30
2022-08-01T14:18:24.565Z,2.67
2022-08-01T14:22:27.969Z,3.10
2022-08-01T14:26:30.235Z,2.40
2022-08-01T14:30:32.262Z,3.15
2022-08-01T14:34:34.535Z,2.88
2022-08-01T14:38:36.669Z,2.80
2022-08-01T14:42:40.034Z,2.83
2022-08-01T14:46:57.515Z,2.97
2022-08-01T14:51:03.861Z,2.92
2022-08-01T14:55:08.994Z,3.22
2022-08-01T14:59:21.319Z,2.90
2022-08-01T15:03:24.146Z,3.17
2022-08-01T15:07:26.522Z,2.80
2022-08-01T15:11:34.223Z,3.60
2022-08-01T15:15:37.225Z,3.08
2022-08-01T15:19:42.073Z,2.60
2022-08-01T15:23:44.986Z,2.65
2022-08-01T15:27:47.090Z,2.28
2022-08-01T15:31:49.263Z,3.42
2022-08-01T15:35:52.973Z,3.22
2022-08-01T15:39:56.725Z,2.92
2022-08-01T15:43:58.881Z,2.88
2022-08-01T15:48:01.105Z,2.58
2022-08-01T15:52:08.386Z,3.50
2022-08-01T15:56:25.325Z,3.28
2022-08-01T16:00:32.851Z,2.33
2022-08-01T16:04:41.155Z,3.22
2022-08-01T16:08:44.007Z,2.90
2022-08-01T16:12:46.268Z,2.60
2022-08-01T16:16:48.771Z,2.75
2022-08-01T16:20:51.124Z,2.30
2022-08-01T16:24:55.588Z,2.90
2022-08-01T16:29:00.061Z,2.63
2022-08-01T16:33:05.373Z,2.90
2022-08-01T16:37:24.441Z,2.42
2022-08-01T16:41:26.463Z,2.80
2022-08-01T16:45:28.705Z,2.55
2022-08-01T16:49:32.154Z,2.40
2022-08-01T16:53:34.623Z,2.50
2022-08-01T16:57:38.509Z,2.15
2022-08-01T17:02:00.239Z,2.55
2022-08-01T17:06:02.989Z,3.25
2022-08-01T17:10:07.447Z,2.35
2022-08-01T17:14:09.470Z,2.70
2022-08-01T17:18:11.796Z,2.65
2022-08-01T17:22:13.848Z,2.05
2022-08-01T17:26:16.197Z,2.35
2022-08-01T17:30:18.926Z,2.80
2022-08-01T17:34:22.439Z,2.42
2022-08-01T17:38:24.527Z,2.17
2022-08-01T17:42:30.255Z,2.75
2022-08-01T17:46:32.325Z,2.55
2022-08-01T17:50:34.769Z,3.13
2022-08-01T17:54:36.787Z,2.83
2022-08-01T17:58:51.813Z,2.67
2022-08-01T18:02:54.357Z,2.88
2022-08-01T18:06:59.030Z,2.80
2022-08-01T18:11:01.379Z,2.88
2022-08-01T18:15:06.127Z,3.08
2022-08-01T18:19:08.882Z,3.70
2022-08-01T18:23:11.385Z,3.25
2022-08-01T18:27:13.505Z,3.55
2022-08-01T18:31:20.591Z,4.20
2022-08-01T18:35:30.943Z,4.13
2022-08-01T18:39:46.668Z,3.88
2022-08-01T18:43:48.904Z,3.97
2022-08-01T18:47:51.204Z,4.15
2022-08-01T18:51:54.417Z,4.97
2022-08-01T18:55:57.009Z,3.92
2022-08-01T18:59:59.095Z,4.60
2022-08-01T19:04:01.887Z,4.53
2022-08-01T19:08:06.170Z,4.70
2022-08-01T19:12:09.735Z,4.55
2022-08-01T19:16:11.912Z,4.03
2022-08-01T19:20:14.204Z,4.57
2022-08-01T19:24:22.994Z,4.00
2022-08-01T19:28:27.305Z,4.63
2022-08-01T19:32:34.288Z,4.50
2022-08-01T19:36:38.431Z,4.38
2022-08-01T19:40:41.054Z,3.67
2022-08-01T19:44:45.047Z,5.03
2022-08-01T19:48:53.612Z,4.78
2022-08-01T19:52:57.770Z,4.68
2022-08-01T19:57:03.052Z,4.75
2022-08-01T20:01:07.895Z,4.38
2022-08-01T20:05:10.750Z,5.53
2022-08-01T20:09:14.054Z,5.13
2022-08-01T20:13:17.441Z,5.25
2022-08-01T20:17:21.450Z,5.90
2022-08-01T20:21:26.977Z,5.30
2022-08-01T20:25:39.797Z,5.72
2022-08-01T20:29:44.824Z,5.68
2022-08-01T20:33:49.092Z,5.60
2022-08-01T20:38:06.652Z,6.22
2022-08-01T20:42:09.496Z,6.70
2022-08-01T20:46:12.476Z,7.03
2022-08-01T20:50:52.946Z,6.15
2022-08-01T20:54:56.118Z,6.68
2022-08-01T20:59:08.986Z,6.03
2022-08-01T21:03:27.525Z,6.15
2022-08-01T21:07:57.010Z,6.50
2022-08-01T21:12:04.013Z,6.03
2022-08-01T21:16:23.232Z,9.07
2022-08-01T21:20:28.626Z,8.52
2022-08-01T21:24:42.596Z,8.50
2022-08-01T21:28:54.569Z,9.50
2022-08-01T21:32:57.905Z,10.65
2022-08-01T21:37:00.283Z,9.82
2022-08-01T21:41:05.246Z,11.45
2022-08-01T21:45:09.756Z,11.40
2022-08-01T21:49:12.869Z,12.13
2022-08-01T21:53:50.442Z,10.73
2022-08-01T21:58:09.189Z,10.38
2022-08-01T22:02:19.224Z,10.10
2022-08-01T22:06:24.452Z,8.82
2022-08-01T22:10:27.522Z,10.10
2022-08-01T22:14:31.743Z,9.35
2022-08-01T22:18:39.072Z,9.02
2022-08-01T22:22:51.290Z,9.23
2022-08-01T22:26:55.974Z,8.77
2022-08-01T22:31:01.530Z,9.77
2022-08-01T22:35:09.152Z,9.30
2022-08-01T22:39:11.432Z,7.47
2022-08-01T22:43:40.106Z,7.60
2022-08-01T22:47:55.129Z,8.65
2022-08-01T22:52:24.371Z,8.43
2022-08-01T22:56:28.793Z,6.70
2022-08-01T23:00:35.812Z,7.30
2022-08-01T23:04:45.449Z,8.20
2022-08-01T23:08:49.570Z,8.07
2022-08-01T23:12:53.436Z,7.57
2022-08-01T23:17:03.296Z,8.43
2022-08-01T23:21:27.580Z,9.65
2022-08-01T23:25:32.220Z,9.30
2022-08-01T23:29:34.560Z,9.13
2022-08-01T23:33:36.982Z,8.05
2022-08-01T23:37:39.286Z,7.80
2022-08-01T23:41:57.922Z,8.65
2022-08-01T23:46:04.428Z,9.05
2022-08-01T23:50:08.558Z,8.48
2022-08-01T23:54:11.310Z,8.65
2022-08-01T23:58:13.425Z,8.85
